sensor_id;sensor_type;location;lat;lon;timestamp;P1;durP1;ratioP1;P2;durP2;ratioP2
47912;SDS011;33676;51.006;17.180;2023-02-10T00:01:42;20.30;;;12.80;;
47912;SDS011;33676;51.006;17.180;2023-02-10T00:04:14;18.40;;;13.10;;
47912;SDS011;33676;51.006;17.180;2023-02-10T00:06:42;20.30;;;12.50;;
47912;SDS011;33676;51.006;17.180;2023-02-10T00:09:12;21.40;;;13.40;;
47912;SDS011;33676;51.006;17.180;2023-02-10T00:11:44;18.90;;;13.00;;
47912;SDS011;33676;51.006;17.180;2023-02-10T00:14:25;19.00;;;12.20;;
47912;SDS011;33676;51.006;17.180;2023-02-10T00:16:56;24.20;;;15.30;;
47912;SDS011;33676;51.006;17.180;2023-02-10T00:19:26;18.50;;;12.40;;
47912;SDS011;33676;51.006;17.180;2023-02-10T00:21:57;25.30;;;14.80;;
47912;SDS011;33676;51.006;17.180;2023-02-10T00:24:26;17.10;;;12.40;;
47912;SDS011;33676;51.006;17.180;2023-02-10T00:26:55;19.90;;;13.90;;
47912;SDS011;33676;51.006;17.180;2023-02-10T00:29:25;16.50;;;11.50;;
47912;SDS011;33676;51.006;17.180;2023-02-10T00:31:57;20.10;;;13.10;;
47912;SDS011;33676;51.006;17.180;2023-02-10T00:34:25;18.40;;;13.40;;
47912;SDS011;33676;51.006;17.180;2023-02-10T00:36:55;16.50;;;11.90;;
47912;SDS011;33676;51.006;17.180;2023-02-10T00:39:24;24.10;;;13.60;;
47912;SDS011;33676;51.006;17.180;2023-02-10T00:41:52;20.70;;;15.60;;
47912;SDS011;33676;51.006;17.180;2023-02-10T00:44:21;22.50;;;13.20;;
47912;SDS011;33676;51.006;17.180;2023-02-10T00:46:49;24.10;;;14.60;;
47912;SDS011;33676;51.006;17.180;2023-02-10T00:49:18;21.10;;;13.30;;
47912;SDS011;33676;51.006;17.180;2023-02-10T00:51:46;18.90;;;13.70;;
47912;SDS011;33676;51.006;17.180;2023-02-10T00:54:15;20.50;;;14.60;;
47912;SDS011;33676;51.006;17.180;2023-02-10T00:56:43;22.00;;;13.20;;
47912;SDS011;33676;51.006;17.180;2023-02-10T00:59:12;23.10;;;14.20;;
47912;SDS011;33676;51.006;17.180;2023-02-10T01:01:41;19.80;;;14.00;;
47912;SDS011;33676;51.006;17.180;2023-02-10T01:04:09;21.90;;;13.90;;
47912;SDS011;33676;51.006;17.180;2023-02-10T01:06:38;22.60;;;16.20;;
47912;SDS011;33676;51.006;17.180;2023-02-10T01:09:06;23.10;;;14.10;;
47912;SDS011;33676;51.006;17.180;2023-02-10T01:11:35;23.10;;;14.50;;
47912;SDS011;33676;51.006;17.180;2023-02-10T01:14:04;21.80;;;15.50;;
47912;SDS011;33676;51.006;17.180;2023-02-10T01:16:32;21.20;;;14.40;;
47912;SDS011;33676;51.006;17.180;2023-02-10T01:19:01;28.20;;;16.20;;
47912;SDS011;33676;51.006;17.180;2023-02-10T01:21:32;19.80;;;13.10;;
47912;SDS011;33676;51.006;17.180;2023-02-10T01:24:02;18.50;;;13.60;;
47912;SDS011;33676;51.006;17.180;2023-02-10T01:26:32;17.90;;;13.10;;
47912;SDS011;33676;51.006;17.180;2023-02-10T01:29:01;21.90;;;14.90;;
47912;SDS011;33676;51.006;17.180;2023-02-10T01:31:30;22.20;;;13.00;;
47912;SDS011;33676;51.006;17.180;2023-02-10T01:33:59;21.30;;;12.40;;
47912;SDS011;33676;51.006;17.180;2023-02-10T01:36:27;18.80;;;13.50;;
47912;SDS011;33676;51.006;17.180;2023-02-10T01:38:55;18.60;;;13.90;;
47912;SDS011;33676;51.006;17.180;2023-02-10T01:41:24;18.60;;;12.40;;
47912;SDS011;33676;51.006;17.180;2023-02-10T01:46:48;17.80;;;11.20;;
47912;SDS011;33676;51.006;17.180;2023-02-10T01:49:21;21.20;;;13.40;;
47912;SDS011;33676;51.006;17.180;2023-02-10T01:52:03;19.00;;;14.00;;
47912;SDS011;33676;51.006;17.180;2023-02-10T01:54:41;20.60;;;11.80;;
47912;SDS011;33676;51.006;17.180;2023-02-10T01:57:12;17.50;;;12.40;;
47912;SDS011;33676;51.006;17.180;2023-02-10T01:59:41;19.50;;;13.30;;
47912;SDS011;33676;51.006;17.180;2023-02-10T02:02:10;20.80;;;13.00;;
47912;SDS011;33676;51.006;17.180;2023-02-10T02:04:53;17.60;;;12.50;;
47912;SDS011;33676;51.006;17.180;2023-02-10T02:07:28;17.70;;;11.30;;
47912;SDS011;33676;51.006;17.180;2023-02-10T02:09:59;18.90;;;12.90;;
47912;SDS011;33676;51.006;17.180;2023-02-10T02:15:33;20.30;;;12.20;;
47912;SDS011;33676;51.006;17.180;2023-02-10T02:30:35;23.90;;;13.90;;
47912;SDS011;33676;51.006;17.180;2023-02-10T02:33:28;25.80;;;14.50;;
47912;SDS011;33676;51.006;17.180;2023-02-10T02:36:01;22.40;;;14.20;;
47912;SDS011;33676;51.006;17.180;2023-02-10T02:38:40;21.80;;;14.30;;
47912;SDS011;33676;51.006;17.180;2023-02-10T02:41:10;20.20;;;14.30;;
47912;SDS011;33676;51.006;17.180;2023-02-10T02:43:38;21.70;;;13.50;;
47912;SDS011;33676;51.006;17.180;2023-02-10T02:46:12;28.00;;;13.70;;
47912;SDS011;33676;51.006;17.180;2023-02-10T02:49:03;21.00;;;12.00;;
47912;SDS011;33676;51.006;17.180;2023-02-10T02:57:34;19.20;;;13.70;;
47912;SDS011;33676;51.006;17.180;2023-02-10T03:00:20;17.80;;;12.90;;
47912;SDS011;33676;51.006;17.180;2023-02-10T03:02:54;20.30;;;13.10;;
47912;SDS011;33676;51.006;17.180;2023-02-10T03:05:27;20.60;;;14.30;;
47912;SDS011;33676;51.006;17.180;2023-02-10T03:07:57;22.70;;;15.20;;
47912;SDS011;33676;51.006;17.180;2023-02-10T03:10:25;27.40;;;15.00;;
47912;SDS011;33676;51.006;17.180;2023-02-10T03:12:54;21.50;;;12.80;;
47912;SDS011;33676;51.006;17.180;2023-02-10T03:15:23;22.60;;;15.00;;
47912;SDS011;33676;51.006;17.180;2023-02-10T03:17:51;20.00;;;14.20;;
47912;SDS011;33676;51.006;17.180;2023-02-10T03:20:20;19.50;;;14.80;;
47912;SDS011;33676;51.006;17.180;2023-02-10T03:22:48;21.70;;;13.60;;
47912;SDS011;33676;51.006;17.180;2023-02-10T03:25:17;19.50;;;12.20;;
47912;SDS011;33676;51.006;17.180;2023-02-10T03:27:46;18.10;;;14.00;;
47912;SDS011;33676;51.006;17.180;2023-02-10T03:30:14;22.30;;;13.80;;
47912;SDS011;33676;51.006;17.180;2023-02-10T03:32:43;22.80;;;14.00;;
47912;SDS011;33676;51.006;17.180;2023-02-10T03:35:11;23.90;;;13.20;;
47912;SDS011;33676;51.006;17.180;2023-02-10T03:37:40;21.70;;;15.00;;
47912;SDS011;33676;51.006;17.180;2023-02-10T03:40:09;24.40;;;16.00;;
47912;SDS011;33676;51.006;17.180;2023-02-10T03:42:38;17.40;;;12.90;;
47912;SDS011;33676;51.006;17.180;2023-02-10T03:45:07;19.00;;;12.50;;
47912;SDS011;33676;51.006;17.180;2023-02-10T03:47:36;21.30;;;13.50;;
47912;SDS011;33676;51.006;17.180;2023-02-10T03:50:04;20.50;;;13.00;;
47912;SDS011;33676;51.006;17.180;2023-02-10T03:52:33;20.50;;;13.30;;
47912;SDS011;33676;51.006;17.180;2023-02-10T03:55:05;22.30;;;14.70;;
47912;SDS011;33676;51.006;17.180;2023-02-10T03:57:34;20.30;;;13.60;;
47912;SDS011;33676;51.006;17.180;2023-02-10T04:00:03;18.30;;;12.40;;
47912;SDS011;33676;51.006;17.180;2023-02-10T04:02:32;21.60;;;14.80;;
47912;SDS011;33676;51.006;17.180;2023-02-10T04:05:01;20.70;;;13.10;;
47912;SDS011;33676;51.006;17.180;2023-02-10T04:07:29;23.70;;;14.20;;
47912;SDS011;33676;51.006;17.180;2023-02-10T04:09:58;21.40;;;13.10;;
47912;SDS011;33676;51.006;17.180;2023-02-10T04:12:26;20.30;;;13.40;;
47912;SDS011;33676;51.006;17.180;2023-02-10T04:14:55;19.10;;;13.30;;
47912;SDS011;33676;51.006;17.180;2023-02-10T04:17:23;25.90;;;15.00;;
47912;SDS011;33676;51.006;17.180;2023-02-10T04:19:52;23.00;;;13.80;;
47912;SDS011;33676;51.006;17.180;2023-02-10T04:22:20;25.20;;;15.40;;
47912;SDS011;33676;51.006;17.180;2023-02-10T04:24:49;22.00;;;15.10;;
47912;SDS011;33676;51.006;17.180;2023-02-10T04:27:17;29.20;;;15.30;;
47912;SDS011;33676;51.006;17.180;2023-02-10T04:29:46;25.40;;;15.30;;
47912;SDS011;33676;51.006;17.180;2023-02-10T04:32:14;19.20;;;12.80;;
47912;SDS011;33676;51.006;17.180;2023-02-10T04:34:43;24.50;;;15.10;;
47912;SDS011;33676;51.006;17.180;2023-02-10T04:37:11;24.40;;;14.80;;
47912;SDS011;33676;51.006;17.180;2023-02-10T04:39:39;23.70;;;14.40;;
47912;SDS011;33676;51.006;17.180;2023-02-10T04:42:08;18.80;;;13.90;;
47912;SDS011;33676;51.006;17.180;2023-02-10T04:44:37;24.30;;;15.50;;
47912;SDS011;33676;51.006;17.180;2023-02-10T04:47:05;26.20;;;14.10;;
47912;SDS011;33676;51.006;17.180;2023-02-10T04:49:34;43.70;;;29.00;;
47912;SDS011;33676;51.006;17.180;2023-02-10T04:52:02;24.80;;;16.70;;
47912;SDS011;33676;51.006;17.180;2023-02-10T04:54:30;21.20;;;17.20;;
47912;SDS011;33676;51.006;17.180;2023-02-10T04:56:59;23.90;;;15.30;;
47912;SDS011;33676;51.006;17.180;2023-02-10T04:59:27;24.50;;;16.00;;
47912;SDS011;33676;51.006;17.180;2023-02-10T05:01:56;27.70;;;18.10;;
47912;SDS011;33676;51.006;17.180;2023-02-10T05:04:24;25.50;;;18.00;;
47912;SDS011;33676;51.006;17.180;2023-02-10T05:06:53;24.10;;;15.60;;
47912;SDS011;33676;51.006;17.180;2023-02-10T05:09:26;26.60;;;15.70;;
47912;SDS011;33676;51.006;17.180;2023-02-10T05:11:57;22.70;;;15.50;;
47912;SDS011;33676;51.006;17.180;2023-02-10T05:14:27;25.50;;;15.20;;
47912;SDS011;33676;51.006;17.180;2023-02-10T05:16:55;22.30;;;14.00;;
47912;SDS011;33676;51.006;17.180;2023-02-10T05:19:24;22.00;;;13.50;;
47912;SDS011;33676;51.006;17.180;2023-02-10T05:21:52;24.50;;;14.80;;
47912;SDS011;33676;51.006;17.180;2023-02-10T05:24:21;23.60;;;13.70;;
47912;SDS011;33676;51.006;17.180;2023-02-10T05:26:49;23.40;;;14.80;;
47912;SDS011;33676;51.006;17.180;2023-02-10T05:29:18;24.70;;;15.10;;
47912;SDS011;33676;51.006;17.180;2023-02-10T05:31:46;26.00;;;18.00;;
47912;SDS011;33676;51.006;17.180;2023-02-10T05:34:15;27.40;;;17.80;;
47912;SDS011;33676;51.006;17.180;2023-02-10T05:36:43;29.10;;;18.50;;
47912;SDS011;33676;51.006;17.180;2023-02-10T05:39:15;23.20;;;14.50;;
47912;SDS011;33676;51.006;17.180;2023-02-10T05:41:54;24.80;;;16.20;;
47912;SDS011;33676;51.006;17.180;2023-02-10T05:44:26;24.30;;;15.10;;
47912;SDS011;33676;51.006;17.180;2023-02-10T05:46:56;20.90;;;15.30;;
47912;SDS011;33676;51.006;17.180;2023-02-10T05:49:25;21.70;;;14.10;;
47912;SDS011;33676;51.006;17.180;2023-02-10T05:51:54;24.70;;;16.40;;
47912;SDS011;33676;51.006;17.180;2023-02-10T05:54:22;20.50;;;14.10;;
47912;SDS011;33676;51.006;17.180;2023-02-10T05:56:50;24.50;;;16.30;;
47912;SDS011;33676;51.006;17.180;2023-02-10T05:59:19;19.50;;;15.20;;
47912;SDS011;33676;51.006;17.180;2023-02-10T06:01:48;24.70;;;15.30;;
47912;SDS011;33676;51.006;17.180;2023-02-10T06:04:37;25.60;;;17.60;;
47912;SDS011;33676;51.006;17.180;2023-02-10T06:07:05;22.20;;;14.20;;
47912;SDS011;33676;51.006;17.180;2023-02-10T06:09:34;28.90;;;15.60;;
47912;SDS011;33676;51.006;17.180;2023-02-10T06:12:02;24.40;;;16.30;;
47912;SDS011;33676;51.006;17.180;2023-02-10T06:14:34;27.30;;;16.20;;
47912;SDS011;33676;51.006;17.180;2023-02-10T06:17:04;24.50;;;18.00;;
47912;SDS011;33676;51.006;17.180;2023-02-10T06:19:38;24.30;;;16.40;;
47912;SDS011;33676;51.006;17.180;2023-02-10T06:22:08;29.30;;;17.00;;
47912;SDS011;33676;51.006;17.180;2023-02-10T06:24:38;25.60;;;17.20;;
47912;SDS011;33676;51.006;17.180;2023-02-10T06:27:07;28.90;;;17.80;;
47912;SDS011;33676;51.006;17.180;2023-02-10T06:29:35;30.50;;;17.60;;
47912;SDS011;33676;51.006;17.180;2023-02-10T06:32:04;30.00;;;18.40;;
47912;SDS011;33676;51.006;17.180;2023-02-10T06:34:32;34.60;;;21.00;;
47912;SDS011;33676;51.006;17.180;2023-02-10T06:37:01;32.80;;;17.70;;
47912;SDS011;33676;51.006;17.180;2023-02-10T06:39:29;32.40;;;18.80;;
47912;SDS011;33676;51.006;17.180;2023-02-10T06:41:59;24.40;;;15.20;;
47912;SDS011;33676;51.006;17.180;2023-02-10T06:44:29;22.70;;;15.50;;
47912;SDS011;33676;51.006;17.180;2023-02-10T06:47:00;23.80;;;15.20;;
47912;SDS011;33676;51.006;17.180;2023-02-10T06:49:28;21.40;;;12.10;;
47912;SDS011;33676;51.006;17.180;2023-02-10T06:51:57;21.50;;;13.50;;
47912;SDS011;33676;51.006;17.180;2023-02-10T06:54:26;22.50;;;15.70;;
47912;SDS011;33676;51.006;17.180;2023-02-10T06:56:54;24.00;;;14.20;;
47912;SDS011;33676;51.006;17.180;2023-02-10T06:59:23;26.50;;;15.30;;
47912;SDS011;33676;51.006;17.180;2023-02-10T07:01:52;27.00;;;15.50;;
47912;SDS011;33676;51.006;17.180;2023-02-10T07:04:21;23.30;;;13.80;;
47912;SDS011;33676;51.006;17.180;2023-02-10T07:06:50;30.60;;;14.90;;
47912;SDS011;33676;51.006;17.180;2023-02-10T07:09:19;29.50;;;16.80;;
47912;SDS011;33676;51.006;17.180;2023-02-10T07:11:48;33.20;;;18.60;;
47912;SDS011;33676;51.006;17.180;2023-02-10T07:14:16;30.10;;;16.60;;
47912;SDS011;33676;51.006;17.180;2023-02-10T07:16:45;28.70;;;17.40;;
47912;SDS011;33676;51.006;17.180;2023-02-10T07:19:15;28.20;;;18.20;;
47912;SDS011;33676;51.006;17.180;2023-02-10T07:21:44;36.50;;;20.20;;
47912;SDS011;33676;51.006;17.180;2023-02-10T07:24:13;31.40;;;19.80;;
47912;SDS011;33676;51.006;17.180;2023-02-10T07:26:42;39.90;;;20.10;;
47912;SDS011;33676;51.006;17.180;2023-02-10T07:29:12;32.90;;;20.80;;
47912;SDS011;33676;51.006;17.180;2023-02-10T07:31:40;32.00;;;18.00;;
47912;SDS011;33676;51.006;17.180;2023-02-10T07:34:09;30.30;;;17.60;;
47912;SDS011;33676;51.006;17.180;2023-02-10T07:36:38;30.20;;;19.10;;
47912;SDS011;33676;51.006;17.180;2023-02-10T07:39:07;27.70;;;17.50;;
47912;SDS011;33676;51.006;17.180;2023-02-10T07:41:38;25.50;;;19.20;;
47912;SDS011;33676;51.006;17.180;2023-02-10T07:44:07;30.20;;;17.70;;
47912;SDS011;33676;51.006;17.180;2023-02-10T07:46:36;29.30;;;19.40;;
47912;SDS011;33676;51.006;17.180;2023-02-10T07:49:04;30.80;;;19.80;;
47912;SDS011;33676;51.006;17.180;2023-02-10T07:51:33;26.30;;;15.60;;
47912;SDS011;33676;51.006;17.180;2023-02-10T07:54:02;34.60;;;16.20;;
47912;SDS011;33676;51.006;17.180;2023-02-10T07:56:31;26.30;;;16.90;;
47912;SDS011;33676;51.006;17.180;2023-02-10T07:59:00;31.30;;;18.70;;
47912;SDS011;33676;51.006;17.180;2023-02-10T08:01:29;21.20;;;15.90;;
47912;SDS011;33676;51.006;17.180;2023-02-10T08:03:58;25.50;;;17.10;;
47912;SDS011;33676;51.006;17.180;2023-02-10T08:06:27;28.50;;;19.30;;
47912;SDS011;33676;51.006;17.180;2023-02-10T08:08:55;31.20;;;19.30;;
47912;SDS011;33676;51.006;17.180;2023-02-10T08:11:24;26.70;;;16.50;;
47912;SDS011;33676;51.006;17.180;2023-02-10T08:13:53;29.30;;;18.20;;
47912;SDS011;33676;51.006;17.180;2023-02-10T08:16:21;25.10;;;17.30;;
47912;SDS011;33676;51.006;17.180;2023-02-10T08:18:50;21.90;;;15.80;;
47912;SDS011;33676;51.006;17.180;2023-02-10T08:21:18;25.10;;;17.30;;
47912;SDS011;33676;51.006;17.180;2023-02-10T08:23:47;26.00;;;16.80;;
47912;SDS011;33676;51.006;17.180;2023-02-10T08:26:23;26.00;;;17.10;;
47912;SDS011;33676;51.006;17.180;2023-02-10T08:28:52;28.40;;;16.90;;
47912;SDS011;33676;51.006;17.180;2023-02-10T08:31:22;25.70;;;17.80;;
47912;SDS011;33676;51.006;17.180;2023-02-10T08:33:51;25.30;;;16.50;;
47912;SDS011;33676;51.006;17.180;2023-02-10T08:36:21;28.40;;;17.80;;
47912;SDS011;33676;51.006;17.180;2023-02-10T08:38:50;22.80;;;15.60;;
47912;SDS011;33676;51.006;17.180;2023-02-10T08:41:19;24.30;;;17.40;;
47912;SDS011;33676;51.006;17.180;2023-02-10T08:43:48;25.80;;;18.60;;
47912;SDS011;33676;51.006;17.180;2023-02-10T08:46:17;27.50;;;16.90;;
47912;SDS011;33676;51.006;17.180;2023-02-10T08:48:45;30.30;;;17.20;;
47912;SDS011;33676;51.006;17.180;2023-02-10T08:51:15;24.10;;;16.40;;
47912;SDS011;33676;51.006;17.180;2023-02-10T08:53:43;23.90;;;17.30;;
47912;SDS011;33676;51.006;17.180;2023-02-10T08:56:17;29.10;;;17.40;;
47912;SDS011;33676;51.006;17.180;2023-02-10T08:58:46;25.50;;;18.10;;
47912;SDS011;33676;51.006;17.180;2023-02-10T09:01:18;25.00;;;16.80;;
47912;SDS011;33676;51.006;17.180;2023-02-10T09:03:57;25.70;;;17.50;;
47912;SDS011;33676;51.006;17.180;2023-02-10T09:06:34;24.90;;;17.30;;
47912;SDS011;33676;51.006;17.180;2023-02-10T09:09:18;24.80;;;17.00;;
47912;SDS011;33676;51.006;17.180;2023-02-10T09:11:51;24.80;;;17.30;;
47912;SDS011;33676;51.006;17.180;2023-02-10T09:14:20;23.10;;;18.20;;
47912;SDS011;33676;51.006;17.180;2023-02-10T09:16:49;29.80;;;17.90;;
47912;SDS011;33676;51.006;17.180;2023-02-10T09:19:19;28.20;;;19.50;;
47912;SDS011;33676;51.006;17.180;2023-02-10T09:21:48;27.40;;;18.00;;
47912;SDS011;33676;51.006;17.180;2023-02-10T09:24:17;24.70;;;18.10;;
47912;SDS011;33676;51.006;17.180;2023-02-10T09:26:45;27.70;;;20.10;;
47912;SDS011;33676;51.006;17.180;2023-02-10T09:29:14;30.70;;;19.70;;
47912;SDS011;33676;51.006;17.180;2023-02-10T09:31:43;27.70;;;17.50;;
47912;SDS011;33676;51.006;17.180;2023-02-10T09:34:12;26.10;;;17.70;;
47912;SDS011;33676;51.006;17.180;2023-02-10T09:36:40;28.70;;;19.00;;
47912;SDS011;33676;51.006;17.180;2023-02-10T09:39:09;24.70;;;17.00;;
47912;SDS011;33676;51.006;17.180;2023-02-10T09:41:44;29.10;;;20.00;;
47912;SDS011;33676;51.006;17.180;2023-02-10T09:44:21;33.20;;;19.90;;
47912;SDS011;33676;51.006;17.180;2023-02-10T09:52:20;35.60;;;21.60;;
47912;SDS011;33676;51.006;17.180;2023-02-10T09:55:00;32.20;;;20.70;;
47912;SDS011;33676;51.006;17.180;2023-02-10T09:57:37;33.40;;;21.10;;
47912;SDS011;33676;51.006;17.180;2023-02-10T10:00:23;29.40;;;20.60;;
47912;SDS011;33676;51.006;17.180;2023-02-10T10:02:56;28.60;;;21.00;;
47912;SDS011;33676;51.006;17.180;2023-02-10T10:05:38;31.60;;;20.20;;
47912;SDS011;33676;51.006;17.180;2023-02-10T10:10:52;35.90;;;22.50;;
47912;SDS011;33676;51.006;17.180;2023-02-10T10:13:25;33.50;;;21.10;;
47912;SDS011;33676;51.006;17.180;2023-02-10T10:22:35;32.90;;;23.60;;
47912;SDS011;33676;51.006;17.180;2023-02-10T10:25:20;29.30;;;21.40;;
47912;SDS011;33676;51.006;17.180;2023-02-10T10:31:16;32.40;;;19.70;;
47912;SDS011;33676;51.006;17.180;2023-02-10T10:36:43;29.40;;;19.90;;
47912;SDS011;33676;51.006;17.180;2023-02-10T10:39:35;26.40;;;18.90;;
47912;SDS011;33676;51.006;17.180;2023-02-10T10:44:58;30.00;;;18.20;;
47912;SDS011;33676;51.006;17.180;2023-02-10T10:47:43;27.30;;;16.00;;
47912;SDS011;33676;51.006;17.180;2023-02-10T10:50:21;34.60;;;18.10;;
47912;SDS011;33676;51.006;17.180;2023-02-10T10:52:53;24.40;;;15.10;;
47912;SDS011;33676;51.006;17.180;2023-02-10T10:55:49;29.80;;;17.50;;
47912;SDS011;33676;51.006;17.180;2023-02-10T10:58:30;28.10;;;19.10;;
47912;SDS011;33676;51.006;17.180;2023-02-10T11:01:04;30.20;;;18.50;;
47912;SDS011;33676;51.006;17.180;2023-02-10T11:03:34;28.40;;;16.80;;
47912;SDS011;33676;51.006;17.180;2023-02-10T11:06:10;37.50;;;18.70;;
47912;SDS011;33676;51.006;17.180;2023-02-10T11:08:53;33.20;;;20.30;;
47912;SDS011;33676;51.006;17.180;2023-02-10T11:11:38;29.20;;;18.00;;
47912;SDS011;33676;51.006;17.180;2023-02-10T11:14:24;29.40;;;20.00;;
47912;SDS011;33676;51.006;17.180;2023-02-10T11:16:57;30.30;;;18.30;;
47912;SDS011;33676;51.006;17.180;2023-02-10T11:19:33;33.30;;;20.70;;
47912;SDS011;33676;51.006;17.180;2023-02-10T11:22:19;34.20;;;19.10;;
47912;SDS011;33676;51.006;17.180;2023-02-10T11:24:52;30.30;;;20.20;;
47912;SDS011;33676;51.006;17.180;2023-02-10T11:27:22;33.00;;;20.20;;
47912;SDS011;33676;51.006;17.180;2023-02-10T11:29:53;35.40;;;22.70;;
47912;SDS011;33676;51.006;17.180;2023-02-10T11:32:31;26.50;;;19.20;;
47912;SDS011;33676;51.006;17.180;2023-02-10T11:35:04;30.90;;;19.30;;
47912;SDS011;33676;51.006;17.180;2023-02-10T11:37:42;30.80;;;19.60;;
47912;SDS011;33676;51.006;17.180;2023-02-10T11:40:18;26.40;;;19.30;;
47912;SDS011;33676;51.006;17.180;2023-02-10T11:42:55;32.00;;;20.80;;
47912;SDS011;33676;51.006;17.180;2023-02-10T11:45:30;28.60;;;19.80;;
47912;SDS011;33676;51.006;17.180;2023-02-10T11:48:02;28.70;;;19.90;;
47912;SDS011;33676;51.006;17.180;2023-02-10T11:50:34;40.00;;;19.30;;
47912;SDS011;33676;51.006;17.180;2023-02-10T11:53:03;31.30;;;19.00;;
47912;SDS011;33676;51.006;17.180;2023-02-10T11:59:39;26.70;;;18.70;;
47912;SDS011;33676;51.006;17.180;2023-02-10T12:05:39;31.30;;;17.70;;
47912;SDS011;33676;51.006;17.180;2023-02-10T12:11:08;29.40;;;18.70;;
47912;SDS011;33676;51.006;17.180;2023-02-10T12:26:32;32.20;;;20.40;;
47912;SDS011;33676;51.006;17.180;2023-02-10T12:29:39;29.90;;;20.70;;
47912;SDS011;33676;51.006;17.180;2023-02-10T12:32:44;32.40;;;19.10;;
47912;SDS011;33676;51.006;17.180;2023-02-10T12:35:25;31.30;;;21.40;;
47912;SDS011;33676;51.006;17.180;2023-02-10T12:41:01;32.50;;;23.00;;
47912;SDS011;33676;51.006;17.180;2023-02-10T12:43:58;31.30;;;19.90;;
47912;SDS011;33676;51.006;17.180;2023-02-10T12:47:01;30.10;;;21.30;;
47912;SDS011;33676;51.006;17.180;2023-02-10T12:49:56;34.00;;;23.40;;
47912;SDS011;33676;51.006;17.180;2023-02-10T12:52:43;28.60;;;22.50;;
47912;SDS011;33676;51.006;17.180;2023-02-10T12:55:21;31.80;;;22.00;;
47912;SDS011;33676;51.006;17.180;2023-02-10T12:58:15;29.10;;;21.90;;
47912;SDS011;33676;51.006;17.180;2023-02-10T13:04:05;36.20;;;21.20;;
47912;SDS011;33676;51.006;17.180;2023-02-10T13:06:46;30.40;;;20.50;;
47912;SDS011;33676;51.006;17.180;2023-02-10T13:09:40;29.80;;;16.70;;
47912;SDS011;33676;51.006;17.180;2023-02-10T13:12:20;30.80;;;22.40;;
47912;SDS011;33676;51.006;17.180;2023-02-10T13:14:58;26.50;;;18.30;;
47912;SDS011;33676;51.006;17.180;2023-02-10T13:18:55;22.50;;;16.40;;
47912;SDS011;33676;51.006;17.180;2023-02-10T13:24:27;27.20;;;16.90;;
47912;SDS011;33676;51.006;17.180;2023-02-10T13:27:30;26.70;;;16.60;;
47912;SDS011;33676;51.006;17.180;2023-02-10T13:30:27;25.40;;;16.10;;
47912;SDS011;33676;51.006;17.180;2023-02-10T13:33:13;29.40;;;15.30;;
47912;SDS011;33676;51.006;17.180;2023-02-10T13:36:00;23.50;;;15.80;;
47912;SDS011;33676;51.006;17.180;2023-02-10T13:38:31;25.70;;;16.10;;
47912;SDS011;33676;51.006;17.180;2023-02-10T13:41:01;25.60;;;16.30;;
47912;SDS011;33676;51.006;17.180;2023-02-10T13:43:54;27.30;;;16.90;;
47912;SDS011;33676;51.006;17.180;2023-02-10T13:46:29;27.10;;;15.50;;
47912;SDS011;33676;51.006;17.180;2023-02-10T13:48:59;23.50;;;17.00;;
47912;SDS011;33676;51.006;17.180;2023-02-10T13:51:35;34.30;;;16.90;;
47912;SDS011;33676;51.006;17.180;2023-02-10T13:54:23;29.20;;;17.10;;
47912;SDS011;33676;51.006;17.180;2023-02-10T13:56:57;26.80;;;17.30;;
47912;SDS011;33676;51.006;17.180;2023-02-10T13:59:35;26.20;;;15.00;;
47912;SDS011;33676;51.006;17.180;2023-02-10T14:02:19;23.00;;;15.00;;
47912;SDS011;33676;51.006;17.180;2023-02-10T14:04:54;25.70;;;14.50;;
47912;SDS011;33676;51.006;17.180;2023-02-10T14:13:23;24.30;;;12.80;;
47912;SDS011;33676;51.006;17.180;2023-02-10T14:16:00;24.80;;;11.80;;
47912;SDS011;33676;51.006;17.180;2023-02-10T14:18:36;20.70;;;13.60;;
47912;SDS011;33676;51.006;17.180;2023-02-10T14:21:13;20.90;;;11.90;;
47912;SDS011;33676;51.006;17.180;2023-02-10T14:23:50;21.40;;;13.10;;
47912;SDS011;33676;51.006;17.180;2023-02-10T14:26:28;24.70;;;14.60;;
47912;SDS011;33676;51.006;17.180;2023-02-10T14:29:02;19.80;;;13.10;;
47912;SDS011;33676;51.006;17.180;2023-02-10T14:31:35;20.30;;;13.50;;
47912;SDS011;33676;51.006;17.180;2023-02-10T14:34:27;19.20;;;11.70;;
47912;SDS011;33676;51.006;17.180;2023-02-10T14:37:02;19.10;;;13.00;;
47912;SDS011;33676;51.006;17.180;2023-02-10T14:39:57;22.10;;;12.60;;
47912;SDS011;33676;51.006;17.180;2023-02-10T14:42:29;19.60;;;13.30;;
47912;SDS011;33676;51.006;17.180;2023-02-10T14:45:00;19.10;;;11.80;;
47912;SDS011;33676;51.006;17.180;2023-02-10T14:47:38;19.60;;;12.50;;
47912;SDS011;33676;51.006;17.180;2023-02-10T14:50:31;18.30;;;12.40;;
47912;SDS011;33676;51.006;17.180;2023-02-10T14:53:03;17.10;;;12.20;;
47912;SDS011;33676;51.006;17.180;2023-02-10T14:55:35;20.70;;;13.30;;
47912;SDS011;33676;51.006;17.180;2023-02-10T14:58:12;21.90;;;13.80;;
47912;SDS011;33676;51.006;17.180;2023-02-10T15:03:39;20.60;;;12.90;;
47912;SDS011;33676;51.006;17.180;2023-02-10T15:06:18;20.20;;;14.70;;
47912;SDS011;33676;51.006;17.180;2023-02-10T15:09:04;22.30;;;12.80;;
47912;SDS011;33676;51.006;17.180;2023-02-10T15:11:53;24.10;;;15.00;;
47912;SDS011;33676;51.006;17.180;2023-02-10T15:17:40;20.30;;;15.10;;
47912;SDS011;33676;51.006;17.180;2023-02-10T15:33:21;24.60;;;16.70;;
47912;SDS011;33676;51.006;17.180;2023-02-10T15:35:53;22.70;;;15.40;;
47912;SDS011;33676;51.006;17.180;2023-02-10T15:41:39;22.00;;;15.30;;
47912;SDS011;33676;51.006;17.180;2023-02-10T15:46:51;57.80;;;36.00;;
47912;SDS011;33676;51.006;17.180;2023-02-10T15:49:22;37.30;;;20.50;;
47912;SDS011;33676;51.006;17.180;2023-02-10T15:51:53;30.10;;;17.30;;
47912;SDS011;33676;51.006;17.180;2023-02-10T15:54:24;26.30;;;17.80;;
47912;SDS011;33676;51.006;17.180;2023-02-10T15:59:32;20.70;;;14.30;;
47912;SDS011;33676;51.006;17.180;2023-02-10T16:02:03;21.50;;;14.30;;
47912;SDS011;33676;51.006;17.180;2023-02-10T16:04:33;23.30;;;15.40;;
47912;SDS011;33676;51.006;17.180;2023-02-10T16:07:02;25.00;;;15.20;;
47912;SDS011;33676;51.006;17.180;2023-02-10T16:09:33;20.60;;;14.10;;
47912;SDS011;33676;51.006;17.180;2023-02-10T16:12:01;21.10;;;14.80;;
47912;SDS011;33676;51.006;17.180;2023-02-10T16:14:30;21.30;;;12.40;;
47912;SDS011;33676;51.006;17.180;2023-02-10T16:16:58;21.90;;;12.70;;
47912;SDS011;33676;51.006;17.180;2023-02-10T16:19:28;21.00;;;12.20;;
47912;SDS011;33676;51.006;17.180;2023-02-10T16:21:58;17.30;;;10.70;;
47912;SDS011;33676;51.006;17.180;2023-02-10T16:24:29;13.10;;;10.20;;
47912;SDS011;33676;51.006;17.180;2023-02-10T16:26:59;11.60;;;8.20;;
47912;SDS011;33676;51.006;17.180;2023-02-10T16:29:29;14.10;;;8.90;;
47912;SDS011;33676;51.006;17.180;2023-02-10T16:31:58;15.70;;;7.70;;
47912;SDS011;33676;51.006;17.180;2023-02-10T16:34:28;7.70;;;6.90;;
47912;SDS011;33676;51.006;17.180;2023-02-10T16:36:57;10.90;;;6.80;;